Newcomb, Maryland
Current Conditions -  °F | °C
As of 3:50 PM on Wednesday 26 Nov 2014 (Local Time) from KESN Reporting Station
Moderate Rain Moderate Rain  
Wind Chill: 32°   Ceiling: 800
Heat Index: 39°   Visibility: 10mi
Dew Point: 39°   Wind: 13mph
Humidity: 100%   Direction: 350°N
Pressure: 29.86"   Gusts: 18mph
Location:  38.75°N, 76.18°W
Report Text: KESN 262050Z 35011G16KT 10SM RA OVC008 04/04 A2986
Loading
Personal Weather Stations






























Interactive Weather Map New forecast layout! Learn more

10-Day Weather Forecast

Advertisements
Track Severe Weather on mobile